TimeEST,TemperatureF,Dew PointF,Humidity,Sea Level PressureIn,VisibilityMPH,Wind Direction,Wind SpeedMPH,Gust SpeedMPH,PrecipitationIn,Events,Conditions,WindDirDegrees,DateUTC
12:15 AM,51.8,51.8,100,30.30,0.5,Calm,Calm,-,N/A,Fog,Fog,0,2012-12-03 05:15:00
12:35 AM,51.8,51.8,100,30.30,5.0,Calm,Calm,-,N/A,,Clear,0,2012-12-03 05:35:00
12:55 AM,51.8,51.8,100,30.30,0.2,Calm,Calm,-,N/A,Fog,Fog,0,2012-12-03 05:55:00
1:15 AM,51.8,51.8,100,30.30,0.5,Calm,Calm,-,N/A,Fog,Fog,0,2012-12-03 06:15:00
1:35 AM,51.8,51.8,100,30.30,0.8,Calm,Calm,-,N/A,,Mist,0,2012-12-03 06:35:00
1:55 AM,50.0,50.0,100,30.30,0.2,Calm,Calm,-,N/A,Fog,Fog,0,2012-12-03 06:55:00
2:15 AM,50.0,50.0,100,30.30,0.2,Calm,Calm,-,N/A,Fog,Fog,0,2012-12-03 07:15:00
2:35 AM,51.8,51.8,100,30.30,0.2,Calm,Calm,-,N/A,Fog,Fog,0,2012-12-03 07:35:00
2:55 AM,50.0,50.0,100,30.30,0.2,Calm,Calm,-,N/A,Fog,Fog,0,2012-12-03 07:55:00
3:15 AM,50.0,50.0,100,30.30,0.2,Calm,Calm,-,N/A,Fog,Fog,0,2012-12-03 08:15:00
3:35 AM,50.0,50.0,100,30.30,0.2,Calm,Calm,-,N/A,Fog,Fog,0,2012-12-03 08:35:00
3:55 AM,50.0,50.0,100,30.30,0.2,Calm,Calm,-,N/A,Fog,Fog,0,2012-12-03 08:55:00
4:15 AM,50.0,50.0,100,30.30,0.2,Calm,Calm,-,N/A,Fog,Fog,0,2012-12-03 09:15:00
4:35 AM,50.0,50.0,100,30.30,0.2,Calm,Calm,-,N/A,Fog,Fog,0,2012-12-03 09:35:00
4:55 AM,50.0,50.0,100,30.30,0.2,Calm,Calm,-,N/A,Fog,Fog,0,2012-12-03 09:55:00
5:15 AM,50.0,50.0,100,30.30,0.2,Calm,Calm,-,N/A,Fog,Fog,0,2012-12-03 10:15:00
5:55 AM,50.0,50.0,100,30.31,0.5,Calm,Calm,-,N/A,Fog,Fog,0,2012-12-03 10:55:00
6:15 AM,50.0,50.0,100,30.31,0.2,Calm,Calm,-,N/A,Fog,Fog,0,2012-12-03 11:15:00
6:35 AM,50.0,50.0,100,30.31,0.2,Calm,Calm,-,N/A,Fog,Fog,0,2012-12-03 11:35:00
6:55 AM,50.0,50.0,100,30.32,0.2,Calm,Calm,-,N/A,Fog,Fog,0,2012-12-03 11:55:00
7:15 AM,50.0,50.0,100,30.32,0.2,Calm,Calm,-,N/A,Fog,Fog,0,2012-12-03 12:15:00
7:35 AM,50.0,50.0,100,30.32,0.2,Calm,Calm,-,N/A,Fog,Fog,0,2012-12-03 12:35:00
7:55 AM,50.0,50.0,100,30.32,0.2,Calm,Calm,-,N/A,Fog,Fog,0,2012-12-03 12:55:00
8:15 AM,50.0,50.0,100,30.33,0.2,Calm,Calm,-,N/A,Fog,Fog,0,2012-12-03 13:15:00
8:35 AM,51.8,51.8,100,30.33,0.2,Calm,Calm,-,N/A,Fog,Fog,0,2012-12-03 13:35:00
8:55 AM,53.6,53.6,100,30.34,0.5,Calm,Calm,-,N/A,Fog,Fog,0,2012-12-03 13:55:00
9:15 AM,55.4,55.4,100,30.34,1.5,Calm,Calm,-,N/A,,Mist,0,2012-12-03 14:15:00
9:35 AM,59.0,59.0,100,30.34,7.0,Calm,Calm,-,N/A,,Clear,0,2012-12-03 14:35:00
9:55 AM,62.6,62.6,100,30.34,10.0,West,3.5,-,N/A,,Clear,260,2012-12-03 14:55:00
10:15 AM,64.4,64.4,100,30.33,10.0,West,3.5,-,N/A,,Clear,280,2012-12-03 15:15:00
10:35 AM,66.2,66.2,100,30.33,10.0,West,4.6,-,N/A,,Clear,280,2012-12-03 15:35:00
10:55 AM,69.8,64.4,83,30.33,10.0,NW,4.6,-,N/A,,Clear,310,2012-12-03 15:55:00
11:15 AM,71.6,64.4,78,30.32,10.0,Calm,Calm,-,N/A,,Clear,0,2012-12-03 16:15:00
11:35 AM,73.4,64.4,73,30.31,10.0,West,3.5,-,N/A,,Clear,280,2012-12-03 16:35:00
11:55 AM,73.4,62.6,69,30.30,10.0,WSW,3.5,-,N/A,,Clear,250,2012-12-03 16:55:00
12:15 PM,75.2,62.6,65,30.29,10.0,WSW,3.5,-,N/A,,Clear,240,2012-12-03 17:15:00
12:35 PM,75.2,60.8,61,30.28,10.0,SW,4.6,-,N/A,,Clear,220,2012-12-03 17:35:00
12:55 PM,77.0,60.8,57,30.27,10.0,West,6.9,-,N/A,,Clear,270,2012-12-03 17:55:00
1:15 PM,75.2,59.0,57,30.27,10.0,SSW,3.5,-,N/A,,Clear,200,2012-12-03 18:15:00
1:35 PM,73.4,60.8,65,30.26,10.0,Calm,Calm,-,N/A,,Clear,0,2012-12-03 18:35:00
1:55 PM,75.2,59.0,57,30.25,10.0,West,3.5,-,N/A,,Clear,270,2012-12-03 18:55:00
2:15 PM,77.0,59.0,54,30.25,10.0,South,6.9,-,N/A,,Clear,180,2012-12-03 19:15:00
2:35 PM,75.2,59.0,57,30.25,10.0,SSW,4.6,-,N/A,,Clear,200,2012-12-03 19:35:00
2:55 PM,73.4,59.0,61,30.25,10.0,West,3.5,-,N/A,,Clear,260,2012-12-03 19:55:00
3:15 PM,75.2,59.0,57,30.24,10.0,West,3.5,-,N/A,,Clear,260,2012-12-03 20:15:00
3:35 PM,77.0,59.0,54,30.25,10.0,Calm,Calm,-,N/A,,Clear,0,2012-12-03 20:35:00
3:55 PM,75.2,57.2,53,30.25,10.0,Calm,Calm,-,N/A,,Clear,0,2012-12-03 20:55:00
4:15 PM,75.2,59.0,57,30.25,10.0,WSW,3.5,-,N/A,,Clear,240,2012-12-03 21:15:00
4:35 PM,73.4,55.4,53,30.25,10.0,Calm,Calm,-,N/A,,Clear,0,2012-12-03 21:35:00
4:55 PM,71.6,57.2,60,30.26,10.0,Calm,Calm,-,N/A,,Clear,0,2012-12-03 21:55:00
5:15 PM,66.2,59.0,78,30.26,10.0,Calm,Calm,-,N/A,,Clear,0,2012-12-03 22:15:00
5:35 PM,64.4,57.2,77,30.26,10.0,Calm,Calm,-,N/A,,Clear,0,2012-12-03 22:35:00
5:55 PM,62.6,57.2,82,30.27,10.0,Calm,Calm,-,N/A,,Clear,0,2012-12-03 22:55:00
6:15 PM,60.8,55.4,82,30.27,10.0,Calm,Calm,-,N/A,,Clear,0,2012-12-03 23:15:00
6:55 PM,59.0,55.4,88,30.28,10.0,Calm,Calm,-,N/A,,Clear,0,2012-12-03 23:55:00
7:15 PM,57.2,53.6,88,30.28,10.0,Calm,Calm,-,N/A,,Clear,0,2012-12-04 00:15:00
7:35 PM,55.4,53.6,94,30.28,10.0,Calm,Calm,-,N/A,,Clear,0,2012-12-04 00:35:00
7:55 PM,55.4,53.6,94,30.29,10.0,Calm,Calm,-,N/A,,Clear,0,2012-12-04 00:55:00
8:15 PM,55.4,53.6,94,30.29,10.0,Calm,Calm,-,N/A,,Clear,0,2012-12-04 01:15:00
8:35 PM,55.4,53.6,94,30.29,10.0,Calm,Calm,-,N/A,,Clear,0,2012-12-04 01:35:00
8:55 PM,55.4,53.6,94,30.29,10.0,Calm,Calm,-,N/A,,Clear,0,2012-12-04 01:55:00
9:15 PM,53.6,53.6,100,30.29,10.0,Calm,Calm,-,N/A,,Clear,0,2012-12-04 02:15:00
9:35 PM,53.6,53.6,100,30.30,10.0,Calm,Calm,-,N/A,,Clear,0,2012-12-04 02:35:00
9:55 PM,53.6,53.6,100,30.30,10.0,Calm,Calm,-,N/A,,Clear,0,2012-12-04 02:55:00
10:15 PM,51.8,51.8,100,30.30,10.0,Calm,Calm,-,N/A,,Clear,0,2012-12-04 03:15:00
10:35 PM,51.8,51.8,100,30.29,10.0,Calm,Calm,-,N/A,,Clear,0,2012-12-04 03:35:00
10:55 PM,51.8,51.8,100,30.30,10.0,Calm,Calm,-,N/A,,Clear,0,2012-12-04 03:55:00
11:15 PM,51.8,51.8,100,30.30,10.0,Calm,Calm,-,N/A,,Clear,0,2012-12-04 04:15:00
11:35 PM,51.8,51.8,100,30.30,10.0,Calm,Calm,-,N/A,,Clear,0,2012-12-04 04:35:00
11:55 PM,51.8,51.8,100,30.30,10.0,Calm,Calm,-,N/A,,Clear,0,2012-12-04 04:55:00